sensor_id;sensor_type;location;lat;lon;timestamp;P1;durP1;ratioP1;P2;durP2;ratioP2
59514;SDS011;46082;43.034;-0.072;2022-08-19T00:00:17;1.95;;;1.75;;
59514;SDS011;46082;43.034;-0.072;2022-08-19T00:02:44;1.55;;;1.27;;
59514;SDS011;46082;43.034;-0.072;2022-08-19T00:05:11;2.13;;;2.00;;
59514;SDS011;46082;43.034;-0.072;2022-08-19T00:07:37;1.65;;;1.52;;
59514;SDS011;46082;43.034;-0.072;2022-08-19T00:10:04;1.50;;;1.40;;
59514;SDS011;46082;43.034;-0.072;2022-08-19T00:12:30;2.08;;;1.88;;
59514;SDS011;46082;43.034;-0.072;2022-08-19T00:14:56;1.85;;;1.70;;
59514;SDS011;46082;43.034;-0.072;2022-08-19T00:17:22;3.05;;;2.00;;
59514;SDS011;46082;43.034;-0.072;2022-08-19T00:19:49;3.15;;;1.35;;
59514;SDS011;46082;43.034;-0.072;2022-08-19T00:22:15;1.55;;;1.45;;
59514;SDS011;46082;43.034;-0.072;2022-08-19T00:24:43;3.05;;;1.70;;
59514;SDS011;46082;43.034;-0.072;2022-08-19T00:27:09;1.52;;;1.40;;
59514;SDS011;46082;43.034;-0.072;2022-08-19T00:29:35;1.67;;;1.58;;
59514;SDS011;46082;43.034;-0.072;2022-08-19T00:32:01;2.53;;;1.80;;
59514;SDS011;46082;43.034;-0.072;2022-08-19T00:34:27;1.95;;;1.85;;
59514;SDS011;46082;43.034;-0.072;2022-08-19T00:36:54;1.95;;;1.70;;
59514;SDS011;46082;43.034;-0.072;2022-08-19T00:39:21;2.25;;;1.70;;
59514;SDS011;46082;43.034;-0.072;2022-08-19T00:41:47;2.50;;;2.08;;
59514;SDS011;46082;43.034;-0.072;2022-08-19T00:44:16;6.85;;;2.17;;
59514;SDS011;46082;43.034;-0.072;2022-08-19T00:46:45;1.50;;;1.40;;
59514;SDS011;46082;43.034;-0.072;2022-08-19T00:49:13;1.63;;;1.38;;
59514;SDS011;46082;43.034;-0.072;2022-08-19T00:51:40;1.80;;;1.70;;
59514;SDS011;46082;43.034;-0.072;2022-08-19T00:54:07;2.08;;;1.33;;
59514;SDS011;46082;43.034;-0.072;2022-08-19T00:56:34;1.73;;;1.63;;
59514;SDS011;46082;43.034;-0.072;2022-08-19T00:59:01;1.40;;;1.30;;
59514;SDS011;46082;43.034;-0.072;2022-08-19T01:01:28;1.73;;;1.58;;
59514;SDS011;46082;43.034;-0.072;2022-08-19T01:03:54;1.63;;;1.52;;
59514;SDS011;46082;43.034;-0.072;2022-08-19T01:06:20;1.30;;;1.30;;
59514;SDS011;46082;43.034;-0.072;2022-08-19T01:08:46;1.95;;;1.73;;
59514;SDS011;46082;43.034;-0.072;2022-08-19T01:11:12;2.05;;;1.95;;
59514;SDS011;46082;43.034;-0.072;2022-08-19T01:13:38;3.35;;;1.75;;
59514;SDS011;46082;43.034;-0.072;2022-08-19T01:16:06;2.15;;;2.00;;
59514;SDS011;46082;43.034;-0.072;2022-08-19T01:18:32;2.50;;;2.00;;
59514;SDS011;46082;43.034;-0.072;2022-08-19T01:21:02;1.77;;;1.67;;
59514;SDS011;46082;43.034;-0.072;2022-08-19T01:23:31;1.92;;;1.83;;
59514;SDS011;46082;43.034;-0.072;2022-08-19T01:26:10;2.75;;;1.75;;
59514;SDS011;46082;43.034;-0.072;2022-08-19T01:28:37;1.50;;;1.40;;
59514;SDS011;46082;43.034;-0.072;2022-08-19T01:31:03;1.48;;;1.33;;
59514;SDS011;46082;43.034;-0.072;2022-08-19T01:33:29;1.45;;;1.35;;
59514;SDS011;46082;43.034;-0.072;2022-08-19T01:36:06;1.50;;;1.40;;
59514;SDS011;46082;43.034;-0.072;2022-08-19T01:38:34;1.50;;;1.40;;
59514;SDS011;46082;43.034;-0.072;2022-08-19T01:41:00;1.40;;;1.30;;
59514;SDS011;46082;43.034;-0.072;2022-08-19T01:43:26;2.60;;;1.70;;
59514;SDS011;46082;43.034;-0.072;2022-08-19T01:45:52;2.45;;;1.63;;
59514;SDS011;46082;43.034;-0.072;2022-08-19T01:48:19;2.10;;;1.90;;
59514;SDS011;46082;43.034;-0.072;2022-08-19T01:50:45;1.95;;;1.60;;
59514;SDS011;46082;43.034;-0.072;2022-08-19T01:53:12;2.75;;;1.52;;
59514;SDS011;46082;43.034;-0.072;2022-08-19T01:55:39;1.63;;;1.52;;
59514;SDS011;46082;43.034;-0.072;2022-08-19T01:58:06;4.00;;;1.85;;
59514;SDS011;46082;43.034;-0.072;2022-08-19T02:00:33;1.95;;;1.70;;
59514;SDS011;46082;43.034;-0.072;2022-08-19T02:02:59;3.55;;;1.70;;
59514;SDS011;46082;43.034;-0.072;2022-08-19T02:05:26;1.25;;;1.23;;
59514;SDS011;46082;43.034;-0.072;2022-08-19T02:07:54;1.70;;;1.60;;
59514;SDS011;46082;43.034;-0.072;2022-08-19T02:10:21;4.53;;;1.73;;
59514;SDS011;46082;43.034;-0.072;2022-08-19T02:12:48;1.90;;;1.80;;
59514;SDS011;46082;43.034;-0.072;2022-08-19T02:15:14;4.05;;;1.73;;
59514;SDS011;46082;43.034;-0.072;2022-08-19T02:17:41;1.63;;;1.52;;
59514;SDS011;46082;43.034;-0.072;2022-08-19T02:20:07;1.67;;;1.58;;
59514;SDS011;46082;43.034;-0.072;2022-08-19T02:22:34;1.75;;;1.55;;
59514;SDS011;46082;43.034;-0.072;2022-08-19T02:25:00;2.80;;;2.20;;
59514;SDS011;46082;43.034;-0.072;2022-08-19T02:27:26;1.60;;;1.50;;
59514;SDS011;46082;43.034;-0.072;2022-08-19T02:29:53;1.58;;;1.48;;
59514;SDS011;46082;43.034;-0.072;2022-08-19T02:32:19;1.88;;;1.77;;
59514;SDS011;46082;43.034;-0.072;2022-08-19T02:34:46;2.08;;;1.98;;
59514;SDS011;46082;43.034;-0.072;2022-08-19T02:37:12;3.55;;;2.35;;
59514;SDS011;46082;43.034;-0.072;2022-08-19T02:39:57;4.70;;;1.60;;
59514;SDS011;46082;43.034;-0.072;2022-08-19T02:42:24;3.33;;;2.08;;
59514;SDS011;46082;43.034;-0.072;2022-08-19T02:44:50;2.67;;;2.03;;
59514;SDS011;46082;43.034;-0.072;2022-08-19T02:47:17;2.63;;;2.42;;
59514;SDS011;46082;43.034;-0.072;2022-08-19T02:49:44;4.03;;;1.90;;
59514;SDS011;46082;43.034;-0.072;2022-08-19T02:52:10;1.90;;;1.80;;
59514;SDS011;46082;43.034;-0.072;2022-08-19T02:54:37;2.83;;;2.00;;
59514;SDS011;46082;43.034;-0.072;2022-08-19T02:57:04;4.25;;;2.05;;
59514;SDS011;46082;43.034;-0.072;2022-08-19T02:59:31;3.42;;;1.95;;
59514;SDS011;46082;43.034;-0.072;2022-08-19T03:01:57;3.72;;;1.90;;
59514;SDS011;46082;43.034;-0.072;2022-08-19T03:04:23;2.30;;;1.73;;
59514;SDS011;46082;43.034;-0.072;2022-08-19T03:06:49;2.75;;;1.85;;
59514;SDS011;46082;43.034;-0.072;2022-08-19T03:09:16;2.70;;;1.65;;
59514;SDS011;46082;43.034;-0.072;2022-08-19T03:11:43;1.70;;;1.60;;
59514;SDS011;46082;43.034;-0.072;2022-08-19T03:14:10;2.65;;;1.50;;
59514;SDS011;46082;43.034;-0.072;2022-08-19T03:16:51;1.60;;;1.48;;
59514;SDS011;46082;43.034;-0.072;2022-08-19T03:19:18;3.00;;;1.90;;
59514;SDS011;46082;43.034;-0.072;2022-08-19T03:21:44;2.17;;;1.33;;
59514;SDS011;46082;43.034;-0.072;2022-08-19T03:24:11;1.40;;;1.30;;
59514;SDS011;46082;43.034;-0.072;2022-08-19T03:26:39;1.63;;;1.52;;
59514;SDS011;46082;43.034;-0.072;2022-08-19T03:29:06;1.80;;;1.70;;
59514;SDS011;46082;43.034;-0.072;2022-08-19T03:31:34;0.98;;;0.98;;
59514;SDS011;46082;43.034;-0.072;2022-08-19T03:34:00;1.33;;;1.13;;
59514;SDS011;46082;43.034;-0.072;2022-08-19T03:36:26;1.35;;;1.20;;
59514;SDS011;46082;43.034;-0.072;2022-08-19T03:38:54;1.13;;;1.13;;
59514;SDS011;46082;43.034;-0.072;2022-08-19T03:41:21;1.75;;;1.63;;
59514;SDS011;46082;43.034;-0.072;2022-08-19T03:43:48;1.60;;;1.20;;
59514;SDS011;46082;43.034;-0.072;2022-08-19T03:46:15;1.30;;;0.98;;
59514;SDS011;46082;43.034;-0.072;2022-08-19T03:48:42;2.17;;;1.25;;
59514;SDS011;46082;43.034;-0.072;2022-08-19T03:51:16;1.40;;;1.30;;
59514;SDS011;46082;43.034;-0.072;2022-08-19T03:53:43;2.45;;;1.17;;
59514;SDS011;46082;43.034;-0.072;2022-08-19T03:56:09;1.35;;;1.25;;
59514;SDS011;46082;43.034;-0.072;2022-08-19T03:58:36;0.95;;;0.95;;
59514;SDS011;46082;43.034;-0.072;2022-08-19T04:01:02;1.15;;;0.93;;
59514;SDS011;46082;43.034;-0.072;2022-08-19T04:03:32;0.80;;;0.80;;
59514;SDS011;46082;43.034;-0.072;2022-08-19T04:06:22;1.10;;;1.10;;
59514;SDS011;46082;43.034;-0.072;2022-08-19T04:08:48;0.70;;;0.70;;
59514;SDS011;46082;43.034;-0.072;2022-08-19T04:11:16;1.40;;;1.30;;
59514;SDS011;46082;43.034;-0.072;2022-08-19T04:13:43;2.22;;;1.25;;
59514;SDS011;46082;43.034;-0.072;2022-08-19T04:16:10;1.98;;;0.90;;
59514;SDS011;46082;43.034;-0.072;2022-08-19T04:18:37;1.48;;;1.05;;
59514;SDS011;46082;43.034;-0.072;2022-08-19T04:21:03;1.20;;;1.10;;
59514;SDS011;46082;43.034;-0.072;2022-08-19T04:23:30;1.20;;;1.05;;
59514;SDS011;46082;43.034;-0.072;2022-08-19T04:25:56;1.40;;;1.30;;
59514;SDS011;46082;43.034;-0.072;2022-08-19T04:28:23;1.17;;;1.10;;
59514;SDS011;46082;43.034;-0.072;2022-08-19T04:30:51;1.85;;;0.93;;
59514;SDS011;46082;43.034;-0.072;2022-08-19T04:33:18;1.27;;;1.10;;
59514;SDS011;46082;43.034;-0.072;2022-08-19T04:35:45;3.13;;;1.20;;
59514;SDS011;46082;43.034;-0.072;2022-08-19T04:38:12;0.98;;;0.98;;
59514;SDS011;46082;43.034;-0.072;2022-08-19T04:40:43;1.40;;;1.30;;
59514;SDS011;46082;43.034;-0.072;2022-08-19T04:43:27;3.30;;;1.40;;
59514;SDS011;46082;43.034;-0.072;2022-08-19T04:45:54;2.75;;;1.33;;
59514;SDS011;46082;43.034;-0.072;2022-08-19T04:48:20;2.17;;;1.00;;
59514;SDS011;46082;43.034;-0.072;2022-08-19T04:50:57;0.98;;;0.90;;
59514;SDS011;46082;43.034;-0.072;2022-08-19T04:53:24;0.90;;;0.90;;
59514;SDS011;46082;43.034;-0.072;2022-08-19T04:55:51;1.08;;;0.95;;
59514;SDS011;46082;43.034;-0.072;2022-08-19T04:58:17;1.77;;;1.08;;
59514;SDS011;46082;43.034;-0.072;2022-08-19T05:00:44;1.40;;;1.30;;
59514;SDS011;46082;43.034;-0.072;2022-08-19T05:03:10;1.95;;;1.10;;
59514;SDS011;46082;43.034;-0.072;2022-08-19T05:05:42;1.67;;;1.00;;
59514;SDS011;46082;43.034;-0.072;2022-08-19T05:08:09;1.10;;;1.10;;
59514;SDS011;46082;43.034;-0.072;2022-08-19T05:10:37;1.27;;;1.17;;
59514;SDS011;46082;43.034;-0.072;2022-08-19T05:13:03;1.27;;;1.05;;
59514;SDS011;46082;43.034;-0.072;2022-08-19T05:15:30;3.80;;;1.25;;
59514;SDS011;46082;43.034;-0.072;2022-08-19T05:17:56;2.83;;;1.25;;
59514;SDS011;46082;43.034;-0.072;2022-08-19T05:20:41;2.42;;;1.40;;
59514;SDS011;46082;43.034;-0.072;2022-08-19T05:23:26;2.20;;;1.10;;
59514;SDS011;46082;43.034;-0.072;2022-08-19T05:25:52;1.00;;;1.00;;
59514;SDS011;46082;43.034;-0.072;2022-08-19T05:28:18;5.50;;;1.23;;
59514;SDS011;46082;43.034;-0.072;2022-08-19T05:30:45;2.55;;;1.00;;
59514;SDS011;46082;43.034;-0.072;2022-08-19T05:33:11;2.08;;;1.48;;
59514;SDS011;46082;43.034;-0.072;2022-08-19T05:35:38;1.15;;;1.00;;
59514;SDS011;46082;43.034;-0.072;2022-08-19T05:38:06;1.00;;;0.98;;
59514;SDS011;46082;43.034;-0.072;2022-08-19T05:40:39;1.63;;;1.52;;
59514;SDS011;46082;43.034;-0.072;2022-08-19T05:43:07;1.42;;;1.17;;
59514;SDS011;46082;43.034;-0.072;2022-08-19T05:45:37;3.65;;;1.10;;
59514;SDS011;46082;43.034;-0.072;2022-08-19T05:48:03;1.13;;;1.05;;
59514;SDS011;46082;43.034;-0.072;2022-08-19T05:50:29;1.27;;;1.17;;
59514;SDS011;46082;43.034;-0.072;2022-08-19T05:52:56;1.85;;;1.30;;
59514;SDS011;46082;43.034;-0.072;2022-08-19T05:55:22;1.35;;;1.25;;
59514;SDS011;46082;43.034;-0.072;2022-08-19T05:57:48;1.10;;;1.10;;
59514;SDS011;46082;43.034;-0.072;2022-08-19T06:00:15;2.20;;;1.02;;
59514;SDS011;46082;43.034;-0.072;2022-08-19T06:02:41;1.48;;;1.13;;
59514;SDS011;46082;43.034;-0.072;2022-08-19T06:05:07;3.85;;;1.17;;
59514;SDS011;46082;43.034;-0.072;2022-08-19T06:07:34;2.03;;;1.10;;
59514;SDS011;46082;43.034;-0.072;2022-08-19T06:10:00;1.60;;;1.27;;
59514;SDS011;46082;43.034;-0.072;2022-08-19T06:12:27;1.80;;;1.60;;
59514;SDS011;46082;43.034;-0.072;2022-08-19T06:14:56;1.27;;;1.20;;
59514;SDS011;46082;43.034;-0.072;2022-08-19T06:17:22;2.28;;;1.65;;
59514;SDS011;46082;43.034;-0.072;2022-08-19T06:19:50;1.48;;;1.38;;
59514;SDS011;46082;43.034;-0.072;2022-08-19T06:22:16;1.52;;;1.42;;
59514;SDS011;46082;43.034;-0.072;2022-08-19T06:24:43;1.23;;;1.15;;
59514;SDS011;46082;43.034;-0.072;2022-08-19T06:27:09;1.48;;;1.30;;
59514;SDS011;46082;43.034;-0.072;2022-08-19T06:29:35;3.15;;;1.35;;
59514;SDS011;46082;43.034;-0.072;2022-08-19T06:32:02;1.40;;;1.30;;
59514;SDS011;46082;43.034;-0.072;2022-08-19T06:34:29;1.48;;;1.38;;
59514;SDS011;46082;43.034;-0.072;2022-08-19T06:36:56;1.40;;;1.30;;
59514;SDS011;46082;43.034;-0.072;2022-08-19T06:39:27;1.40;;;1.30;;
59514;SDS011;46082;43.034;-0.072;2022-08-19T06:41:55;2.25;;;1.00;;
59514;SDS011;46082;43.034;-0.072;2022-08-19T06:44:23;1.75;;;1.55;;
59514;SDS011;46082;43.034;-0.072;2022-08-19T06:46:50;4.78;;;1.25;;
59514;SDS011;46082;43.034;-0.072;2022-08-19T06:49:17;1.50;;;1.20;;
59514;SDS011;46082;43.034;-0.072;2022-08-19T06:51:44;1.50;;;1.40;;
59514;SDS011;46082;43.034;-0.072;2022-08-19T06:54:12;1.10;;;1.00;;
59514;SDS011;46082;43.034;-0.072;2022-08-19T06:56:39;1.10;;;1.10;;
59514;SDS011;46082;43.034;-0.072;2022-08-19T06:59:09;2.63;;;1.70;;
59514;SDS011;46082;43.034;-0.072;2022-08-19T07:01:43;1.35;;;1.25;;
59514;SDS011;46082;43.034;-0.072;2022-08-19T07:04:12;1.40;;;1.30;;
59514;SDS011;46082;43.034;-0.072;2022-08-19T07:06:38;4.38;;;1.27;;
59514;SDS011;46082;43.034;-0.072;2022-08-19T07:09:05;1.13;;;1.10;;
59514;SDS011;46082;43.034;-0.072;2022-08-19T07:11:32;1.83;;;1.23;;
59514;SDS011;46082;43.034;-0.072;2022-08-19T07:13:59;1.40;;;1.30;;
59514;SDS011;46082;43.034;-0.072;2022-08-19T07:16:25;1.00;;;1.00;;
59514;SDS011;46082;43.034;-0.072;2022-08-19T07:18:51;1.88;;;1.48;;
59514;SDS011;46082;43.034;-0.072;2022-08-19T07:21:18;3.67;;;1.25;;
59514;SDS011;46082;43.034;-0.072;2022-08-19T07:23:45;2.90;;;1.20;;
59514;SDS011;46082;43.034;-0.072;2022-08-19T07:26:20;1.25;;;1.20;;
59514;SDS011;46082;43.034;-0.072;2022-08-19T07:28:47;2.35;;;1.20;;
59514;SDS011;46082;43.034;-0.072;2022-08-19T07:31:15;2.95;;;1.40;;
59514;SDS011;46082;43.034;-0.072;2022-08-19T07:33:43;1.27;;;1.20;;
59514;SDS011;46082;43.034;-0.072;2022-08-19T07:36:09;1.52;;;1.42;;
59514;SDS011;46082;43.034;-0.072;2022-08-19T07:38:36;1.17;;;1.08;;
59514;SDS011;46082;43.034;-0.072;2022-08-19T07:41:04;1.65;;;1.20;;
59514;SDS011;46082;43.034;-0.072;2022-08-19T07:43:30;2.05;;;1.40;;
59514;SDS011;46082;43.034;-0.072;2022-08-19T07:45:57;3.70;;;1.17;;
59514;SDS011;46082;43.034;-0.072;2022-08-19T07:48:23;1.70;;;1.30;;
59514;SDS011;46082;43.034;-0.072;2022-08-19T07:50:57;2.50;;;1.23;;
59514;SDS011;46082;43.034;-0.072;2022-08-19T07:53:24;1.35;;;1.25;;
59514;SDS011;46082;43.034;-0.072;2022-08-19T07:55:50;2.58;;;1.40;;
59514;SDS011;46082;43.034;-0.072;2022-08-19T07:58:18;5.03;;;1.70;;
59514;SDS011;46082;43.034;-0.072;2022-08-19T08:00:45;2.50;;;1.55;;
59514;SDS011;46082;43.034;-0.072;2022-08-19T08:03:12;1.90;;;1.33;;
59514;SDS011;46082;43.034;-0.072;2022-08-19T08:05:38;1.30;;;1.20;;
59514;SDS011;46082;43.034;-0.072;2022-08-19T08:08:23;1.10;;;1.10;;
59514;SDS011;46082;43.034;-0.072;2022-08-19T08:11:08;1.42;;;1.10;;
59514;SDS011;46082;43.034;-0.072;2022-08-19T08:13:35;1.45;;;1.13;;
59514;SDS011;46082;43.034;-0.072;2022-08-19T08:16:02;1.27;;;1.17;;
59514;SDS011;46082;43.034;-0.072;2022-08-19T08:18:28;1.98;;;1.15;;
59514;SDS011;46082;43.034;-0.072;2022-08-19T08:20:55;2.83;;;1.30;;
59514;SDS011;46082;43.034;-0.072;2022-08-19T08:23:21;2.08;;;1.52;;
59514;SDS011;46082;43.034;-0.072;2022-08-19T08:25:49;2.33;;;1.30;;
59514;SDS011;46082;43.034;-0.072;2022-08-19T08:28:16;2.28;;;1.10;;
59514;SDS011;46082;43.034;-0.072;2022-08-19T08:30:42;4.50;;;1.40;;
59514;SDS011;46082;43.034;-0.072;2022-08-19T08:33:10;1.38;;;1.27;;
59514;SDS011;46082;43.034;-0.072;2022-08-19T08:35:36;1.92;;;1.73;;
59514;SDS011;46082;43.034;-0.072;2022-08-19T08:38:03;1.30;;;1.20;;
59514;SDS011;46082;43.034;-0.072;2022-08-19T08:45:32;2.30;;;1.65;;
59514;SDS011;46082;43.034;-0.072;2022-08-19T08:48:00;2.08;;;1.23;;
59514;SDS011;46082;43.034;-0.072;2022-08-19T08:50:49;2.10;;;1.90;;
59514;SDS011;46082;43.034;-0.072;2022-08-19T08:53:17;2.38;;;1.60;;
59514;SDS011;46082;43.034;-0.072;2022-08-19T08:55:45;1.70;;;1.48;;
59514;SDS011;46082;43.034;-0.072;2022-08-19T08:58:29;2.85;;;1.88;;
59514;SDS011;46082;43.034;-0.072;2022-08-19T09:00:56;1.83;;;1.45;;
59514;SDS011;46082;43.034;-0.072;2022-08-19T09:03:24;3.33;;;1.48;;
59514;SDS011;46082;43.034;-0.072;2022-08-19T09:06:11;3.78;;;1.50;;
59514;SDS011;46082;43.034;-0.072;2022-08-19T09:11:09;2.65;;;1.65;;
59514;SDS011;46082;43.034;-0.072;2022-08-19T09:13:56;4.68;;;1.50;;
59514;SDS011;46082;43.034;-0.072;2022-08-19T09:16:25;2.55;;;1.42;;
59514;SDS011;46082;43.034;-0.072;2022-08-19T09:18:53;1.40;;;1.30;;
59514;SDS011;46082;43.034;-0.072;2022-08-19T09:21:20;1.27;;;1.20;;
59514;SDS011;46082;43.034;-0.072;2022-08-19T09:23:48;2.47;;;1.45;;
59514;SDS011;46082;43.034;-0.072;2022-08-19T09:26:15;4.43;;;1.63;;
59514;SDS011;46082;43.034;-0.072;2022-08-19T09:28:43;1.60;;;1.33;;
59514;SDS011;46082;43.034;-0.072;2022-08-19T09:31:19;4.72;;;1.90;;
59514;SDS011;46082;43.034;-0.072;2022-08-19T09:33:46;1.08;;;1.00;;
59514;SDS011;46082;43.034;-0.072;2022-08-19T09:36:13;1.67;;;1.58;;
59514;SDS011;46082;43.034;-0.072;2022-08-19T09:38:39;4.88;;;1.95;;
59514;SDS011;46082;43.034;-0.072;2022-08-19T09:41:07;1.50;;;1.40;;
59514;SDS011;46082;43.034;-0.072;2022-08-19T09:43:34;2.85;;;1.50;;
59514;SDS011;46082;43.034;-0.072;2022-08-19T09:46:03;3.97;;;1.30;;
59514;SDS011;46082;43.034;-0.072;2022-08-19T09:48:34;1.65;;;1.42;;
59514;SDS011;46082;43.034;-0.072;2022-08-19T09:51:11;3.70;;;1.40;;
59514;SDS011;46082;43.034;-0.072;2022-08-19T09:53:40;1.50;;;1.13;;
59514;SDS011;46082;43.034;-0.072;2022-08-19T09:56:07;2.13;;;1.40;;
59514;SDS011;46082;43.034;-0.072;2022-08-19T09:58:33;2.38;;;1.35;;
59514;SDS011;46082;43.034;-0.072;2022-08-19T10:01:00;1.58;;;1.33;;
59514;SDS011;46082;43.034;-0.072;2022-08-19T10:03:27;3.97;;;1.10;;
59514;SDS011;46082;43.034;-0.072;2022-08-19T10:05:54;1.10;;;1.00;;
59514;SDS011;46082;43.034;-0.072;2022-08-19T10:08:25;1.98;;;1.40;;
59514;SDS011;46082;43.034;-0.072;2022-08-19T10:10:52;1.33;;;1.23;;
59514;SDS011;46082;43.034;-0.072;2022-08-19T10:13:19;2.85;;;1.50;;
59514;SDS011;46082;43.034;-0.072;2022-08-19T10:15:50;3.00;;;1.40;;
59514;SDS011;46082;43.034;-0.072;2022-08-19T10:18:16;1.77;;;1.05;;
59514;SDS011;46082;43.034;-0.072;2022-08-19T10:20:44;1.55;;;1.30;;
59514;SDS011;46082;43.034;-0.072;2022-08-19T10:23:11;4.82;;;1.25;;
59514;SDS011;46082;43.034;-0.072;2022-08-19T10:25:37;1.05;;;1.00;;
59514;SDS011;46082;43.034;-0.072;2022-08-19T10:28:03;1.30;;;1.20;;
59514;SDS011;46082;43.034;-0.072;2022-08-19T10:30:31;4.15;;;1.15;;
59514;SDS011;46082;43.034;-0.072;2022-08-19T10:32:57;1.20;;;1.15;;
59514;SDS011;46082;43.034;-0.072;2022-08-19T10:35:23;1.20;;;1.10;;
59514;SDS011;46082;43.034;-0.072;2022-08-19T10:37:54;1.20;;;1.00;;
59514;SDS011;46082;43.034;-0.072;2022-08-19T10:40:23;1.30;;;1.20;;
59514;SDS011;46082;43.034;-0.072;2022-08-19T10:42:50;1.33;;;0.90;;
59514;SDS011;46082;43.034;-0.072;2022-08-19T10:45:16;3.80;;;1.02;;
59514;SDS011;46082;43.034;-0.072;2022-08-19T10:47:42;2.70;;;1.13;;
59514;SDS011;46082;43.034;-0.072;2022-08-19T10:50:09;1.15;;;1.05;;
59514;SDS011;46082;43.034;-0.072;2022-08-19T10:52:54;1.15;;;1.05;;
59514;SDS011;46082;43.034;-0.072;2022-08-19T10:55:21;1.35;;;1.00;;
59514;SDS011;46082;43.034;-0.072;2022-08-19T10:58:10;1.33;;;1.10;;
59514;SDS011;46082;43.034;-0.072;2022-08-19T11:00:36;1.33;;;1.00;;
59514;SDS011;46082;43.034;-0.072;2022-08-19T11:03:02;1.60;;;0.90;;
59514;SDS011;46082;43.034;-0.072;2022-08-19T11:05:28;1.40;;;1.05;;
59514;SDS011;46082;43.034;-0.072;2022-08-19T11:07:55;0.90;;;0.90;;
59514;SDS011;46082;43.034;-0.072;2022-08-19T11:10:21;0.75;;;0.73;;
59514;SDS011;46082;43.034;-0.072;2022-08-19T11:12:48;2.20;;;1.15;;
59514;SDS011;46082;43.034;-0.072;2022-08-19T11:15:19;0.93;;;0.80;;
59514;SDS011;46082;43.034;-0.072;2022-08-19T11:17:45;2.17;;;0.90;;
59514;SDS011;46082;43.034;-0.072;2022-08-19T11:20:11;1.75;;;1.42;;
59514;SDS011;46082;43.034;-0.072;2022-08-19T11:22:38;1.23;;;1.10;;
59514;SDS011;46082;43.034;-0.072;2022-08-19T11:25:05;1.30;;;1.17;;
59514;SDS011;46082;43.034;-0.072;2022-08-19T11:27:31;0.80;;;0.80;;
59514;SDS011;46082;43.034;-0.072;2022-08-19T11:29:58;1.23;;;0.80;;
59514;SDS011;46082;43.034;-0.072;2022-08-19T11:32:25;0.75;;;0.73;;
59514;SDS011;46082;43.034;-0.072;2022-08-19T11:34:52;1.15;;;1.02;;
59514;SDS011;46082;43.034;-0.072;2022-08-19T11:37:19;0.80;;;0.80;;
59514;SDS011;46082;43.034;-0.072;2022-08-19T11:39:45;1.30;;;1.17;;
59514;SDS011;46082;43.034;-0.072;2022-08-19T11:42:11;0.90;;;0.90;;
59514;SDS011;46082;43.034;-0.072;2022-08-19T11:44:56;0.82;;;0.82;;
59514;SDS011;46082;43.034;-0.072;2022-08-19T11:47:22;2.95;;;0.98;;
59514;SDS011;46082;43.034;-0.072;2022-08-19T11:49:49;1.48;;;0.95;;
59514;SDS011;46082;43.034;-0.072;2022-08-19T11:52:15;1.35;;;1.10;;
59514;SDS011;46082;43.034;-0.072;2022-08-19T11:54:41;1.02;;;0.88;;
59514;SDS011;46082;43.034;-0.072;2022-08-19T11:57:07;0.85;;;0.85;;
59514;SDS011;46082;43.034;-0.072;2022-08-19T11:59:33;0.93;;;0.93;;
59514;SDS011;46082;43.034;-0.072;2022-08-19T12:02:00;1.00;;;0.70;;
59514;SDS011;46082;43.034;-0.072;2022-08-19T12:04:26;3.65;;;1.13;;
59514;SDS011;46082;43.034;-0.072;2022-08-19T12:06:52;0.80;;;0.80;;
59514;SDS011;46082;43.034;-0.072;2022-08-19T12:09:18;1.00;;;0.85;;
59514;SDS011;46082;43.034;-0.072;2022-08-19T12:11:44;2.45;;;1.20;;
59514;SDS011;46082;43.034;-0.072;2022-08-19T12:14:11;0.90;;;0.90;;
59514;SDS011;46082;43.034;-0.072;2022-08-19T12:16:39;1.40;;;1.10;;
59514;SDS011;46082;43.034;-0.072;2022-08-19T12:19:06;1.50;;;1.30;;
59514;SDS011;46082;43.034;-0.072;2022-08-19T12:21:33;4.22;;;0.85;;
59514;SDS011;46082;43.034;-0.072;2022-08-19T12:24:00;2.35;;;1.08;;
59514;SDS011;46082;43.034;-0.072;2022-08-19T12:26:27;1.38;;;1.08;;
59514;SDS011;46082;43.034;-0.072;2022-08-19T12:28:53;0.82;;;0.82;;
59514;SDS011;46082;43.034;-0.072;2022-08-19T12:31:19;1.77;;;1.00;;
59514;SDS011;46082;43.034;-0.072;2022-08-19T12:33:46;1.23;;;1.00;;
59514;SDS011;46082;43.034;-0.072;2022-08-19T12:36:13;1.10;;;1.10;;
59514;SDS011;46082;43.034;-0.072;2022-08-19T12:38:40;1.00;;;0.70;;
59514;SDS011;46082;43.034;-0.072;2022-08-19T12:41:09;0.80;;;0.80;;
59514;SDS011;46082;43.034;-0.072;2022-08-19T12:43:36;1.17;;;1.08;;
59514;SDS011;46082;43.034;-0.072;2022-08-19T12:46:06;0.70;;;0.70;;
59514;SDS011;46082;43.034;-0.072;2022-08-19T12:48:32;0.75;;;0.75;;
59514;SDS011;46082;43.034;-0.072;2022-08-19T12:50:59;0.80;;;0.80;;
59514;SDS011;46082;43.034;-0.072;2022-08-19T12:53:26;2.90;;;0.82;;
59514;SDS011;46082;43.034;-0.072;2022-08-19T12:56:00;0.80;;;0.77;;
59514;SDS011;46082;43.034;-0.072;2022-08-19T12:58:26;1.08;;;0.98;;
59514;SDS011;46082;43.034;-0.072;2022-08-19T13:00:53;1.33;;;1.00;;
59514;SDS011;46082;43.034;-0.072;2022-08-19T13:03:20;0.98;;;0.98;;
59514;SDS011;46082;43.034;-0.072;2022-08-19T13:05:52;1.95;;;1.02;;
59514;SDS011;46082;43.034;-0.072;2022-08-19T13:08:18;1.13;;;0.88;;
59514;SDS011;46082;43.034;-0.072;2022-08-19T13:10:44;0.77;;;0.77;;
59514;SDS011;46082;43.034;-0.072;2022-08-19T13:13:11;2.55;;;0.93;;
59514;SDS011;46082;43.034;-0.072;2022-08-19T13:15:39;0.80;;;0.80;;
59514;SDS011;46082;43.034;-0.072;2022-08-19T13:18:06;0.80;;;0.80;;
59514;SDS011;46082;43.034;-0.072;2022-08-19T13:20:34;1.10;;;1.02;;
59514;SDS011;46082;43.034;-0.072;2022-08-19T13:23:00;0.70;;;0.70;;
59514;SDS011;46082;43.034;-0.072;2022-08-19T13:25:26;0.70;;;0.70;;
59514;SDS011;46082;43.034;-0.072;2022-08-19T13:27:52;2.95;;;0.80;;
59514;SDS011;46082;43.034;-0.072;2022-08-19T13:30:20;1.77;;;0.85;;
59514;SDS011;46082;43.034;-0.072;2022-08-19T13:33:05;1.60;;;0.77;;
59514;SDS011;46082;43.034;-0.072;2022-08-19T13:38:13;1.75;;;1.08;;
59514;SDS011;46082;43.034;-0.072;2022-08-19T13:40:39;6.50;;;1.00;;
59514;SDS011;46082;43.034;-0.072;2022-08-19T13:43:06;1.15;;;1.00;;
59514;SDS011;46082;43.034;-0.072;2022-08-19T13:45:33;0.60;;;0.60;;
59514;SDS011;46082;43.034;-0.072;2022-08-19T13:47:59;0.80;;;0.80;;
59514;SDS011;46082;43.034;-0.072;2022-08-19T13:50:27;0.77;;;0.77;;
59514;SDS011;46082;43.034;-0.072;2022-08-19T13:52:54;1.05;;;0.70;;
59514;SDS011;46082;43.034;-0.072;2022-08-19T13:55:21;1.35;;;0.80;;
59514;SDS011;46082;43.034;-0.072;2022-08-19T13:57:57;1.88;;;0.80;;
59514;SDS011;46082;43.034;-0.072;2022-08-19T14:00:25;1.70;;;1.00;;
59514;SDS011;46082;43.034;-0.072;2022-08-19T14:02:52;0.98;;;0.90;;
59514;SDS011;46082;43.034;-0.072;2022-08-19T14:05:18;3.28;;;0.70;;
59514;SDS011;46082;43.034;-0.072;2022-08-19T14:07:45;0.63;;;0.63;;
59514;SDS011;46082;43.034;-0.072;2022-08-19T14:10:12;2.33;;;1.27;;
59514;SDS011;46082;43.034;-0.072;2022-08-19T14:12:38;1.45;;;0.60;;
59514;SDS011;46082;43.034;-0.072;2022-08-19T14:15:07;1.27;;;0.70;;
59514;SDS011;46082;43.034;-0.072;2022-08-19T14:17:33;1.10;;;0.88;;
59514;SDS011;46082;43.034;-0.072;2022-08-19T14:20:03;0.80;;;0.60;;
59514;SDS011;46082;43.034;-0.072;2022-08-19T14:22:33;0.75;;;0.75;;
59514;SDS011;46082;43.034;-0.072;2022-08-19T14:24:59;0.70;;;0.70;;
59514;SDS011;46082;43.034;-0.072;2022-08-19T14:27:25;1.15;;;0.95;;
59514;SDS011;46082;43.034;-0.072;2022-08-19T14:29:52;0.80;;;0.80;;
59514;SDS011;46082;43.034;-0.072;2022-08-19T14:32:18;1.52;;;1.00;;
59514;SDS011;46082;43.034;-0.072;2022-08-19T14:34:44;0.70;;;0.70;;
59514;SDS011;46082;43.034;-0.072;2022-08-19T14:37:11;0.57;;;0.57;;
59514;SDS011;46082;43.034;-0.072;2022-08-19T14:39:39;1.17;;;0.70;;
59514;SDS011;46082;43.034;-0.072;2022-08-19T14:42:09;1.05;;;0.95;;
59514;SDS011;46082;43.034;-0.072;2022-08-19T14:44:35;1.00;;;0.95;;
59514;SDS011;46082;43.034;-0.072;2022-08-19T14:47:02;1.02;;;0.80;;